createdAt,value
2018-07-01T09:24:10.664Z,55.71
2018-07-01T09:26:40.134Z,53.58
2018-07-01T09:29:09.595Z,53.64
2018-07-01T09:31:39.337Z,53.09
2018-07-01T09:34:08.686Z,51.49
2018-07-01T09:36:38.149Z,52.08
2018-07-01T09:39:10.330Z,53.69
2018-07-01T09:42:22.461Z,55.76
2018-07-01T09:44:51.950Z,56.54
2018-07-01T09:47:37.134Z,59.42
2018-07-01T09:50:06.571Z,59.90
2018-07-01T09:52:36.143Z,58.68
2018-07-01T09:55:06.317Z,64.53
2018-07-01T09:57:35.833Z,65.73
2018-07-01T10:00:05.998Z,64.07
2018-07-01T10:02:35.367Z,61.97
2018-07-01T10:05:05.030Z,61.78
2018-07-01T10:07:34.431Z,59.76
2018-07-01T10:10:04.110Z,56.60
2018-07-01T10:12:33.560Z,56.71
2018-07-01T10:15:02.866Z,54.54
2018-07-01T10:17:32.479Z,55.23
2018-07-01T10:20:01.957Z,53.89
2018-07-01T10:22:31.672Z,51.88
2018-07-01T10:25:01.166Z,48.48
2018-07-01T10:27:30.777Z,48.25
2018-07-01T10:30:00.343Z,46.23
2018-07-01T10:32:29.965Z,46.17
2018-07-01T10:34:59.415Z,47.92
2018-07-01T10:37:29.070Z,49.74
2018-07-01T10:39:59.868Z,51.56
2018-07-01T10:42:29.442Z,52.84
2018-07-01T10:44:58.901Z,57.51
2018-07-01T10:47:29.433Z,61.07
2018-07-01T10:49:58.885Z,57.85
2018-07-01T10:52:28.328Z,55.17
2018-07-01T10:54:57.892Z,53.08
2018-07-01T10:57:27.178Z,51.85
2018-07-01T10:59:56.584Z,52.20
2018-07-01T11:02:26.010Z,51.03
2018-07-01T11:04:55.579Z,50.71
2018-07-01T11:07:25.186Z,50.05
2018-07-01T11:09:54.500Z,47.65
2018-07-01T11:12:24.129Z,44.99
2018-07-01T11:14:53.682Z,46.31
2018-07-01T11:17:22.919Z,45.05
2018-07-01T11:19:52.520Z,45.40
2018-07-01T11:22:21.961Z,42.06
2018-07-01T11:24:51.422Z,41.23
2018-07-01T11:27:21.047Z,42.22
2018-07-01T11:29:50.435Z,43.91
2018-07-01T11:32:20.104Z,42.75
2018-07-01T11:34:50.203Z,42.62
2018-07-01T11:37:19.618Z,42.10
2018-07-01T11:39:49.071Z,43.13
2018-07-01T11:42:18.702Z,41.75
2018-07-01T11:44:48.061Z,41.29
2018-07-01T11:47:17.513Z,38.64
2018-07-01T11:49:47.070Z,36.99
2018-07-01T11:52:16.690Z,37.16
2018-07-01T11:54:46.032Z,36.56
2018-07-01T11:57:15.583Z,34.68
2018-07-01T11:59:45.154Z,35.54
2018-07-01T12:02:14.667Z,36.95
2018-07-01T12:05:02.947Z,39.12
2018-07-01T12:07:13.580Z,48.27
2018-07-01T12:09:43.148Z,56.50
2018-07-01T12:12:12.825Z,61.92
2018-07-01T12:14:42.421Z,65.51
2018-07-01T12:17:11.942Z,67.65
2018-07-01T12:19:41.313Z,66.11
2018-07-01T12:22:10.641Z,68.29
2018-07-01T12:24:40.286Z,69.32
2018-07-01T12:27:09.894Z,70.61
2018-07-01T12:29:40.950Z,72.35
2018-07-01T12:32:10.528Z,66.62
2018-07-01T12:34:40.314Z,64.92
2018-07-01T12:37:09.640Z,66.16
2018-07-01T12:39:39.169Z,66.04
2018-07-01T12:42:08.681Z,64.52
2018-07-01T12:44:38.248Z,63.53
2018-07-01T12:47:07.800Z,63.03
2018-07-01T12:49:37.154Z,60.34
2018-07-01T12:52:06.625Z,61.09
2018-07-01T12:54:36.275Z,60.49
2018-07-01T12:57:05.745Z,57.91
2018-07-01T12:59:35.229Z,56.05
2018-07-01T13:02:04.975Z,55.93
2018-07-01T13:04:34.528Z,56.35
2018-07-01T13:07:03.974Z,54.91
2018-07-01T13:09:33.472Z,53.96
2018-07-01T13:12:02.984Z,55.33
2018-07-01T13:14:32.592Z,51.80
2018-07-01T13:17:02.183Z,49.06
2018-07-01T13:19:31.682Z,47.61
2018-07-01T13:22:01.282Z,48.16
2018-07-01T13:24:30.832Z,45.97
2018-07-01T13:27:00.342Z,47.25
2018-07-01T13:29:29.874Z,43.81
2018-07-01T13:31:59.359Z,42.40
2018-07-01T13:34:28.596Z,41.59
2018-07-01T13:36:58.144Z,40.36
2018-07-01T13:39:27.549Z,41.78
2018-07-01T13:41:58.598Z,39.36
2018-07-01T13:44:28.180Z,41.78
2018-07-01T13:46:57.600Z,42.00
2018-07-01T13:49:27.084Z,41.93
2018-07-01T13:51:56.630Z,44.05
2018-07-01T13:54:26.153Z,44.02
2018-07-01T13:56:55.596Z,44.53
2018-07-01T13:59:25.133Z,45.13
2018-07-01T14:01:54.520Z,44.27
2018-07-01T14:04:24.007Z,45.60
2018-07-01T14:06:53.580Z,44.95
2018-07-01T14:09:23.050Z,41.63
2018-07-01T14:11:52.451Z,41.56
2018-07-01T14:14:21.939Z,40.61
2018-07-01T14:16:51.441Z,41.91
2018-07-01T14:19:20.832Z,41.63
2018-07-01T14:21:50.373Z,42.63
2018-07-01T14:24:19.894Z,43.07
2018-07-01T14:26:49.388Z,42.26
2018-07-01T14:29:18.975Z,42.95
2018-07-01T14:31:48.365Z,40.84
2018-07-01T14:34:17.926Z,39.89
2018-07-01T14:36:47.985Z,39.69
2018-07-01T14:39:17.403Z,40.98
2018-07-01T14:41:46.873Z,39.48
2018-07-01T14:44:16.389Z,39.25
2018-07-01T14:46:45.882Z,39.26
2018-07-01T14:49:15.360Z,39.37
2018-07-01T14:51:44.846Z,37.79
2018-07-01T14:54:14.453Z,36.67
2018-07-01T14:56:44.858Z,36.58
2018-07-01T14:59:14.404Z,34.96
2018-07-01T15:01:44.126Z,34.23
2018-07-01T15:04:13.755Z,34.63
2018-07-01T15:06:43.389Z,35.35
2018-07-01T15:09:13.166Z,35.11
2018-07-01T15:11:42.597Z,35.28
2018-07-01T15:14:12.108Z,35.52
2018-07-01T15:16:41.476Z,34.49
2018-07-01T15:19:11.097Z,32.90
2018-07-01T15:21:40.667Z,33.39
2018-07-01T15:24:10.264Z,32.88
2018-07-01T15:26:39.673Z,32.16
2018-07-01T15:29:09.419Z,31.00
2018-07-01T15:31:39.868Z,31.89
2018-07-01T15:34:09.525Z,30.82
2018-07-01T15:36:39.078Z,29.92
2018-07-01T15:39:10.838Z,28.98
2018-07-01T15:41:40.304Z,31.32
2018-07-01T15:44:09.790Z,30.30
2018-07-01T15:46:39.581Z,30.14
2018-07-01T15:49:09.229Z,31.17
2018-07-01T15:51:38.707Z,30.91
2018-07-01T15:54:08.401Z,33.41
2018-07-01T15:56:37.956Z,34.62
2018-07-01T15:59:07.433Z,36.55
2018-07-01T16:01:37.085Z,34.98
2018-07-01T16:04:06.926Z,33.33
2018-07-01T16:06:36.317Z,31.53
2018-07-01T16:09:08.656Z,31.89
2018-07-01T16:11:38.273Z,31.86
2018-07-01T16:14:07.859Z,32.44
2018-07-01T16:16:37.290Z,34.43
2018-07-01T16:19:07.350Z,33.14
2018-07-01T16:21:36.782Z,34.24
2018-07-01T16:24:06.272Z,36.37
2018-07-01T16:26:40.783Z,37.14
2018-07-01T16:29:10.356Z,39.01
2018-07-01T16:31:39.822Z,39.33
2018-07-01T16:34:09.074Z,39.82
2018-07-01T16:36:38.777Z,40.61
2018-07-01T16:39:11.164Z,41.07
2018-07-01T16:41:40.811Z,40.22
2018-07-01T16:44:10.576Z,41.21
2018-07-01T16:46:39.924Z,42.97
2018-07-01T16:49:09.759Z,43.20
2018-07-01T16:51:39.513Z,42.85
2018-07-01T16:54:08.800Z,43.25
2018-07-01T16:56:38.323Z,43.20
2018-07-01T16:59:07.702Z,43.84
2018-07-01T17:01:37.226Z,43.93
2018-07-01T17:04:06.669Z,44.24
2018-07-01T17:06:36.134Z,43.33
2018-07-01T17:09:07.192Z,42.82
2018-07-01T17:11:36.638Z,41.68
2018-07-01T17:14:06.199Z,41.29
2018-07-01T17:16:35.598Z,38.75
2018-07-01T17:19:04.993Z,38.50
2018-07-01T17:21:34.419Z,38.46
2018-07-01T17:24:04.196Z,39.70
2018-07-01T17:26:33.532Z,39.58
2018-07-01T17:29:02.956Z,40.42
2018-07-01T17:31:37.570Z,39.51
2018-07-01T17:34:07.093Z,40.81
2018-07-01T17:36:36.648Z,40.58
2018-07-01T17:39:08.992Z,39.78
2018-07-01T17:41:38.969Z,41.00
2018-07-01T17:44:08.417Z,41.08
2018-07-01T17:46:38.069Z,42.71
2018-07-01T17:49:07.752Z,42.78
2018-07-01T17:51:37.210Z,44.01
2018-07-01T17:54:06.771Z,45.07
2018-07-01T17:56:36.073Z,46.30
2018-07-01T17:59:05.654Z,46.98
2018-07-01T18:01:35.006Z,48.08
2018-07-01T18:04:04.465Z,48.12
2018-07-01T18:06:33.884Z,49.01
2018-07-01T18:09:03.819Z,49.62
2018-07-01T18:11:33.239Z,49.90
2018-07-01T18:14:02.787Z,50.39
2018-07-01T18:16:32.288Z,51.36
2018-07-01T18:19:01.772Z,51.02
2018-07-01T18:21:48.145Z,51.71
2018-07-01T18:24:27.541Z,51.81
2018-07-01T18:26:30.400Z,51.56
2018-07-01T18:29:08.183Z,52.25
2018-07-01T18:31:29.773Z,52.13
2018-07-01T18:33:59.263Z,52.68
2018-07-01T18:36:28.737Z,52.91
2018-07-01T18:38:58.354Z,52.91
2018-07-01T18:41:28.039Z,52.90
2018-07-01T18:43:57.515Z,53.85
2018-07-01T18:46:27.119Z,53.07
2018-07-01T18:48:56.804Z,53.79
2018-07-01T18:51:27.309Z,54.06
2018-07-01T18:53:57.059Z,54.35
2018-07-01T18:56:26.499Z,54.17
2018-07-01T18:58:55.996Z,55.38
2018-07-01T19:01:25.556Z,55.58
2018-07-01T19:03:55.163Z,55.24
2018-07-01T19:06:24.697Z,55.67
2018-07-01T19:08:54.355Z,55.52
2018-07-01T19:11:23.979Z,55.12
2018-07-01T19:13:53.720Z,56.36
2018-07-01T19:16:23.080Z,56.35
2018-07-01T19:18:52.521Z,56.95
2018-07-01T19:21:22.056Z,56.82
2018-07-01T19:23:51.625Z,56.45
2018-07-01T19:26:21.462Z,56.70
2018-07-01T19:28:51.180Z,56.68
2018-07-01T19:31:20.696Z,57.26
2018-07-01T19:33:50.213Z,57.81
2018-07-01T19:36:20.506Z,57.66
2018-07-01T19:38:49.909Z,58.27
2018-07-01T19:41:19.536Z,59.55
2018-07-01T19:43:49.115Z,60.20
2018-07-01T19:46:18.866Z,61.05
2018-07-01T19:48:48.446Z,62.01
2018-07-01T19:51:17.921Z,62.47
2018-07-01T19:53:47.376Z,62.97
2018-07-01T19:56:16.883Z,63.23
2018-07-01T19:58:46.514Z,63.96
2018-07-01T20:01:16.216Z,64.66
2018-07-01T20:03:45.603Z,65.03
2018-07-01T20:06:15.144Z,65.69
2018-07-01T20:08:44.643Z,66.44
2018-07-01T20:11:14.296Z,66.51
2018-07-01T20:13:43.921Z,67.11
2018-07-01T20:16:13.253Z,67.26
2018-07-01T20:18:42.772Z,66.90
2018-07-01T20:21:12.379Z,68.03
2018-07-01T20:23:41.896Z,68.58
2018-07-01T20:26:11.514Z,69.46
2018-07-01T20:28:41.009Z,70.01
2018-07-01T20:31:10.455Z,69.33
2018-07-01T20:33:39.953Z,69.44
2018-07-01T20:36:09.596Z,69.18
2018-07-01T20:38:39.296Z,70.20
2018-07-01T20:41:08.961Z,70.54
2018-07-01T20:43:38.778Z,70.16
2018-07-01T20:46:08.545Z,69.82
2018-07-01T20:48:38.191Z,69.83
2018-07-01T20:51:07.691Z,69.82
2018-07-01T20:53:37.153Z,69.40
2018-07-01T20:56:06.781Z,68.83
2018-07-01T20:58:36.275Z,68.63
2018-07-01T21:01:05.759Z,68.59
2018-07-01T21:03:35.125Z,68.78
2018-07-01T21:06:04.604Z,69.19
2018-07-01T21:08:34.080Z,69.48
2018-07-01T21:11:03.808Z,69.72
2018-07-01T21:13:33.340Z,69.93
2018-07-01T21:16:02.765Z,70.12
2018-07-01T21:18:32.230Z,70.26
2018-07-01T21:21:01.862Z,69.55
2018-07-01T21:23:31.349Z,69.72
2018-07-01T21:26:00.848Z,69.66
2018-07-01T21:28:30.190Z,68.46
2018-07-01T21:30:59.770Z,68.10
2018-07-01T21:33:29.215Z,67.34
2018-07-01T21:35:59.088Z,67.80
2018-07-01T21:38:28.736Z,67.34
2018-07-01T21:40:58.236Z,67.68
2018-07-01T21:43:27.765Z,67.39
2018-07-01T21:45:57.088Z,67.46
2018-07-01T21:48:26.577Z,67.60
2018-07-01T21:50:56.133Z,67.55
2018-07-01T21:53:25.921Z,67.74
2018-07-01T21:55:55.451Z,68.20
2018-07-01T21:58:24.933Z,69.10
2018-07-01T22:00:54.506Z,69.08
2018-07-01T22:03:23.991Z,69.96
2018-07-01T22:05:53.526Z,70.79
2018-07-01T22:08:22.969Z,71.54
2018-07-01T22:12:05.171Z,72.81
2018-07-01T22:14:39.341Z,74.60
2018-07-01T22:17:11.742Z,75.68
2018-07-01T22:19:41.192Z,76.54
2018-07-01T22:22:10.700Z,77.39
2018-07-01T22:24:40.553Z,77.59
2018-07-01T22:27:10.105Z,78.00
2018-07-01T22:29:39.631Z,79.24
2018-07-01T22:32:09.221Z,79.79
2018-07-01T22:34:38.705Z,80.20
2018-07-01T22:37:08.192Z,80.85
2018-07-01T22:39:37.554Z,81.14
2018-07-01T22:42:07.384Z,81.41
2018-07-01T22:44:36.884Z,81.10
2018-07-01T22:47:06.558Z,81.60
2018-07-01T22:49:36.090Z,81.45
2018-07-01T22:52:05.600Z,81.85
2018-07-01T22:54:35.161Z,82.08
2018-07-01T22:57:04.482Z,82.06
2018-07-01T22:59:33.920Z,82.21
2018-07-01T23:03:18.435Z,81.92
2018-07-01T23:05:47.804Z,81.78
2018-07-01T23:08:17.371Z,81.37
2018-07-01T23:10:46.996Z,81.88
2018-07-01T23:13:16.504Z,81.90
2018-07-01T23:15:45.991Z,83.27
2018-07-01T23:18:15.487Z,84.33
2018-07-01T23:20:45.015Z,83.34
2018-07-01T23:23:14.631Z,84.20
2018-07-01T23:25:44.148Z,85.37
2018-07-01T23:28:13.613Z,86.39
2018-07-01T23:30:43.013Z,87.01
2018-07-01T23:33:12.488Z,87.79
2018-07-01T23:35:41.928Z,88.43
2018-07-01T23:38:11.173Z,89.11
2018-07-01T23:40:40.705Z,89.51
2018-07-01T23:43:10.117Z,89.51
2018-07-01T23:45:40.718Z,89.94
2018-07-01T23:48:10.470Z,90.27
2018-07-01T23:50:40.049Z,90.19
2018-07-01T23:53:09.537Z,89.65
2018-07-01T23:55:38.962Z,88.94
2018-07-01T23:58:08.614Z,87.45
